createdAt,value
2022-10-13T00:00:29.679Z,12.40
2022-10-13T00:02:58.850Z,12.40
2022-10-13T00:05:25.442Z,12.40
2022-10-13T00:07:52.283Z,12.50
2022-10-13T00:10:18.986Z,12.40
2022-10-13T00:12:45.555Z,12.40
2022-10-13T00:15:12.574Z,12.50
2022-10-13T00:17:39.207Z,12.50
2022-10-13T00:20:06.289Z,12.60
2022-10-13T00:22:33.020Z,12.60
2022-10-13T00:24:59.590Z,12.60
2022-10-13T00:27:26.169Z,12.50
2022-10-13T00:29:52.861Z,12.50
2022-10-13T00:32:20.156Z,12.50
2022-10-13T00:34:47.090Z,12.50
2022-10-13T00:37:13.795Z,12.50
2022-10-13T00:39:40.464Z,12.40
2022-10-13T00:42:07.935Z,12.40
2022-10-13T00:44:53.422Z,12.40
2022-10-13T00:47:20.826Z,12.40
2022-10-13T00:49:48.341Z,12.40
2022-10-13T00:52:16.429Z,12.40
2022-10-13T00:54:44.258Z,12.40
2022-10-13T00:57:10.943Z,12.50
2022-10-13T00:59:39.029Z,12.40
2022-10-13T01:02:05.879Z,12.40
2022-10-13T01:04:37.927Z,12.40
2022-10-13T01:07:05.361Z,12.50
2022-10-13T01:09:37.534Z,12.50
2022-10-13T01:12:04.120Z,12.60
2022-10-13T01:14:30.674Z,12.60
2022-10-13T01:17:05.925Z,12.70
2022-10-13T01:19:47.874Z,12.70
2022-10-13T01:22:40.954Z,12.70
2022-10-13T01:25:13.294Z,12.70
2022-10-13T01:27:51.823Z,12.80
2022-10-13T01:30:19.410Z,12.70
2022-10-13T01:32:58.341Z,12.70
2022-10-13T01:35:32.195Z,12.70
2022-10-13T01:38:05.393Z,12.70
2022-10-13T01:40:50.712Z,12.70
2022-10-13T01:43:20.212Z,12.70
2022-10-13T01:46:07.158Z,12.70
2022-10-13T01:48:35.713Z,12.70
2022-10-13T01:51:02.618Z,12.80
2022-10-13T01:53:29.839Z,12.80
2022-10-13T01:56:00.160Z,12.80
2022-10-13T01:58:31.514Z,12.80
2022-10-13T02:01:11.595Z,12.80
2022-10-13T02:03:41.013Z,12.80
2022-10-13T02:06:18.026Z,12.80
2022-10-13T02:08:51.355Z,12.90
2022-10-13T02:11:19.243Z,12.90
2022-10-13T02:13:54.998Z,12.90
2022-10-13T02:16:23.565Z,13.00
2022-10-13T02:18:51.053Z,13.00
2022-10-13T02:21:17.733Z,13.00
2022-10-13T02:23:45.032Z,12.90
2022-10-13T02:26:12.674Z,12.80
2022-10-13T02:28:39.743Z,12.80
2022-10-13T02:31:08.064Z,12.70
2022-10-13T02:33:35.652Z,12.70
2022-10-13T02:36:02.228Z,12.70
2022-10-13T02:38:28.785Z,12.70
2022-10-13T02:40:55.363Z,12.80
2022-10-13T02:43:22.116Z,12.80
2022-10-13T02:45:48.698Z,12.90
2022-10-13T02:48:15.262Z,12.90
2022-10-13T02:50:41.897Z,12.90
2022-10-13T02:53:08.468Z,12.90
2022-10-13T02:55:35.037Z,13.00
2022-10-13T02:58:01.575Z,13.10
2022-10-13T03:00:28.240Z,13.10
2022-10-13T03:02:54.886Z,13.10
2022-10-13T03:05:21.541Z,13.10
2022-10-13T03:07:49.608Z,13.10
2022-10-13T03:10:16.246Z,13.10
2022-10-13T03:12:43.003Z,13.00
2022-10-13T03:15:09.711Z,13.10
2022-10-13T03:17:36.379Z,13.10
2022-10-13T03:20:03.152Z,13.10
2022-10-13T03:22:31.297Z,13.00
2022-10-13T03:24:57.865Z,13.00
2022-10-13T03:27:27.981Z,12.90
2022-10-13T03:29:54.592Z,12.90
2022-10-13T03:32:21.442Z,12.90
2022-10-13T03:34:49.555Z,12.80
2022-10-13T03:37:16.357Z,12.90
2022-10-13T03:39:43.412Z,12.90
2022-10-13T03:42:10.486Z,12.90
2022-10-13T03:44:38.987Z,13.00
2022-10-13T03:47:05.600Z,13.00
2022-10-13T03:49:32.196Z,13.10
2022-10-13T03:51:59.056Z,13.10
2022-10-13T03:54:25.692Z,13.00
2022-10-13T03:56:53.322Z,13.10
2022-10-13T03:59:19.912Z,13.10
2022-10-13T04:01:46.600Z,13.10
2022-10-13T04:04:13.263Z,13.10
2022-10-13T04:06:41.530Z,13.10
2022-10-13T04:09:08.124Z,13.10
2022-10-13T04:11:34.761Z,13.20
2022-10-13T04:14:01.331Z,13.20
2022-10-13T04:16:29.499Z,13.20
2022-10-13T04:18:58.187Z,13.20
2022-10-13T04:21:25.526Z,13.10
2022-10-13T04:23:54.115Z,13.10
2022-10-13T04:26:21.890Z,13.10
2022-10-13T04:28:49.562Z,13.20
2022-10-13T04:31:16.591Z,13.20
2022-10-13T04:33:44.299Z,13.20
2022-10-13T04:36:11.727Z,13.30
2022-10-13T04:38:38.572Z,13.30
2022-10-13T04:41:06.115Z,13.30
2022-10-13T04:43:33.060Z,13.30
2022-10-13T04:46:04.916Z,13.30
2022-10-13T04:48:31.572Z,13.30
2022-10-13T04:50:59.192Z,13.30
2022-10-13T04:53:28.957Z,13.30
2022-10-13T04:55:56.465Z,13.30
2022-10-13T04:58:23.088Z,13.30
2022-10-13T05:00:50.088Z,13.20
2022-10-13T05:03:16.762Z,13.20
2022-10-13T05:05:43.384Z,13.20
2022-10-13T05:08:10.020Z,13.20
2022-10-13T05:10:36.634Z,13.20
2022-10-13T05:13:03.578Z,13.20
2022-10-13T05:15:30.136Z,13.20
2022-10-13T05:17:57.995Z,13.30
2022-10-13T05:20:24.550Z,13.30
2022-10-13T05:22:51.148Z,13.20
2022-10-13T05:25:17.802Z,13.20
2022-10-13T05:27:46.314Z,13.20
2022-10-13T05:30:13.143Z,13.20
2022-10-13T05:32:39.716Z,13.20
2022-10-13T05:35:08.956Z,13.20
2022-10-13T05:37:37.703Z,13.20
2022-10-13T05:40:04.486Z,13.20
2022-10-13T05:42:31.409Z,13.10
2022-10-13T05:44:57.978Z,13.10
2022-10-13T05:47:28.039Z,13.10
2022-10-13T05:49:55.814Z,13.10
2022-10-13T05:52:23.599Z,13.20
2022-10-13T05:54:55.076Z,13.10
2022-10-13T05:57:43.978Z,13.10
2022-10-13T06:00:13.081Z,13.00
2022-10-13T06:02:45.911Z,13.10
2022-10-13T06:05:14.647Z,13.10
2022-10-13T06:07:41.276Z,13.10
2022-10-13T06:10:08.286Z,13.10
2022-10-13T06:12:36.327Z,13.10
2022-10-13T06:15:03.095Z,13.10
2022-10-13T06:17:29.694Z,13.10
2022-10-13T06:19:56.260Z,13.10
2022-10-13T06:22:23.253Z,13.10
2022-10-13T06:24:49.867Z,13.10
2022-10-13T06:27:16.710Z,13.10
2022-10-13T06:29:44.086Z,13.10
2022-10-13T06:32:10.926Z,13.10
2022-10-13T06:34:37.506Z,13.10
2022-10-13T06:37:04.074Z,13.10
2022-10-13T06:39:30.682Z,13.20
2022-10-13T06:41:58.744Z,13.20
2022-10-13T06:44:30.305Z,13.30
2022-10-13T06:47:03.363Z,13.30
2022-10-13T06:49:30.386Z,13.30
2022-10-13T06:51:57.356Z,13.30
2022-10-13T06:54:24.158Z,13.30
2022-10-13T06:56:51.369Z,13.30
2022-10-13T06:59:20.756Z,13.30
2022-10-13T07:01:48.307Z,13.30
2022-10-13T07:04:16.196Z,13.30
2022-10-13T07:06:43.272Z,13.30
2022-10-13T07:09:10.672Z,13.30
2022-10-13T07:11:37.679Z,13.30
2022-10-13T07:14:04.667Z,13.30
2022-10-13T07:16:31.910Z,13.30
2022-10-13T07:18:59.022Z,13.30
2022-10-13T07:21:25.928Z,13.40
2022-10-13T07:23:53.204Z,13.30
2022-10-13T07:26:20.282Z,13.30
2022-10-13T07:28:47.389Z,13.40
2022-10-13T07:31:15.941Z,13.40
2022-10-13T07:33:44.351Z,13.40
2022-10-13T07:36:12.170Z,13.40
2022-10-13T07:38:39.781Z,13.40
2022-10-13T07:41:07.801Z,13.40
2022-10-13T07:43:34.843Z,13.50
2022-10-13T07:46:05.924Z,13.50
2022-10-13T07:48:33.520Z,13.50
2022-10-13T07:51:21.086Z,13.50
2022-10-13T07:53:48.778Z,13.60
2022-10-13T07:56:16.230Z,13.60
2022-10-13T07:58:44.192Z,13.60
2022-10-13T08:01:11.605Z,13.60
2022-10-13T08:03:41.100Z,13.60
2022-10-13T08:06:14.612Z,13.70
2022-10-13T08:08:41.825Z,13.70
2022-10-13T08:11:16.144Z,13.70
2022-10-13T08:13:46.632Z,13.80
2022-10-13T08:16:13.551Z,13.80
2022-10-13T08:18:40.379Z,13.80
2022-10-13T08:21:39.226Z,13.90
2022-10-13T08:23:59.167Z,13.90
2022-10-13T08:26:26.947Z,14.00
2022-10-13T08:31:41.276Z,14.30
2022-10-13T08:34:08.777Z,14.30
2022-10-13T08:36:35.855Z,14.30
2022-10-13T08:39:03.371Z,14.40
2022-10-13T08:41:31.520Z,14.50
2022-10-13T08:44:47.602Z,14.50
2022-10-13T08:47:23.812Z,14.50
2022-10-13T08:49:50.865Z,14.60
2022-10-13T08:52:19.926Z,14.70
2022-10-13T08:54:47.208Z,14.70
2022-10-13T08:57:15.418Z,14.70
2022-10-13T08:59:42.426Z,14.70
2022-10-13T09:02:14.055Z,14.70
2022-10-13T09:04:43.771Z,14.70
2022-10-13T09:07:31.529Z,14.70
2022-10-13T09:09:58.479Z,14.70
2022-10-13T09:12:27.266Z,14.60
2022-10-13T09:15:12.813Z,14.60
2022-10-13T09:17:41.151Z,14.60
2022-10-13T09:20:23.153Z,14.60
2022-10-13T09:23:07.839Z,14.70
2022-10-13T09:25:42.264Z,14.70
2022-10-13T09:28:11.874Z,14.70
2022-10-13T09:30:41.428Z,14.70
2022-10-13T09:33:09.128Z,14.70
2022-10-13T09:35:36.785Z,14.60
2022-10-13T09:38:04.609Z,14.60
2022-10-13T09:40:32.532Z,14.60
2022-10-13T09:43:00.811Z,14.60
2022-10-13T09:45:28.142Z,14.60
2022-10-13T09:47:57.653Z,14.70
2022-10-13T09:50:28.953Z,14.70
2022-10-13T09:53:10.388Z,14.80
2022-10-13T09:55:37.429Z,14.80
2022-10-13T09:58:12.600Z,14.90
2022-10-13T10:00:40.135Z,15.00
2022-10-13T10:03:16.731Z,15.00
2022-10-13T10:05:55.902Z,15.10
2022-10-13T10:08:58.046Z,15.10
2022-10-13T10:11:28.851Z,15.20
2022-10-13T10:13:56.637Z,15.20
2022-10-13T10:16:24.878Z,15.30
2022-10-13T10:18:58.776Z,15.30
2022-10-13T10:21:44.056Z,15.40
2022-10-13T10:24:17.207Z,15.40
2022-10-13T10:26:50.249Z,15.40
2022-10-13T10:29:22.408Z,15.40
2022-10-13T10:32:04.621Z,15.40
2022-10-13T10:34:50.534Z,15.40
2022-10-13T10:37:21.394Z,15.40
2022-10-13T10:39:57.581Z,15.50
2022-10-13T10:42:24.534Z,15.60
2022-10-13T10:44:53.480Z,15.70
2022-10-13T10:47:26.821Z,15.80
2022-10-13T10:49:58.980Z,15.90
2022-10-13T10:52:49.749Z,16.10
2022-10-13T10:55:20.708Z,16.10
2022-10-13T10:58:07.541Z,16.20
2022-10-13T11:00:39.448Z,16.20
2022-10-13T11:03:06.346Z,16.40
2022-10-13T11:05:52.146Z,16.40
2022-10-13T11:08:37.740Z,16.40
2022-10-13T11:11:24.967Z,16.40
2022-10-13T11:14:21.206Z,16.40
2022-10-13T11:17:11.063Z,16.40
2022-10-13T11:19:38.896Z,16.30
2022-10-13T11:22:05.883Z,16.30
2022-10-13T11:24:38.719Z,16.30
2022-10-13T11:27:11.337Z,16.40
2022-10-13T11:29:47.144Z,16.40
2022-10-13T11:32:46.469Z,16.40
2022-10-13T11:35:23.989Z,16.20
2022-10-13T11:38:07.618Z,16.20
2022-10-13T11:40:44.034Z,16.20
2022-10-13T11:43:25.991Z,16.10
2022-10-13T11:46:00.574Z,16.20
2022-10-13T11:48:27.207Z,16.10
2022-10-13T11:50:59.775Z,16.10
2022-10-13T11:53:28.031Z,16.10
2022-10-13T11:55:55.600Z,16.10
2022-10-13T11:58:22.156Z,16.00
2022-10-13T12:00:51.752Z,15.90
2022-10-13T12:03:26.887Z,15.90
2022-10-13T12:05:55.725Z,15.90
2022-10-13T12:08:22.465Z,15.90
2022-10-13T12:10:52.523Z,15.90
2022-10-13T12:13:20.630Z,15.90
2022-10-13T12:15:47.283Z,15.90
2022-10-13T12:18:26.920Z,15.90
2022-10-13T12:20:58.623Z,15.90
2022-10-13T12:23:25.780Z,15.90
2022-10-13T12:25:57.885Z,15.90
2022-10-13T12:28:25.790Z,15.90
2022-10-13T12:30:54.179Z,15.90
2022-10-13T12:33:23.872Z,15.80
2022-10-13T12:35:50.485Z,15.80
2022-10-13T12:38:21.800Z,15.80
2022-10-13T12:40:49.813Z,15.80
2022-10-13T12:43:18.363Z,15.80
2022-10-13T12:45:48.622Z,15.80
2022-10-13T12:48:35.031Z,15.70
2022-10-13T12:51:16.952Z,15.70
2022-10-13T12:53:45.588Z,15.70
2022-10-13T12:56:23.284Z,15.60
2022-10-13T12:58:49.873Z,15.60
2022-10-13T13:01:27.406Z,15.50
2022-10-13T13:03:55.042Z,15.50
2022-10-13T13:06:23.599Z,15.50
2022-10-13T13:09:09.805Z,15.50
2022-10-13T13:11:37.838Z,15.40
2022-10-13T13:14:23.445Z,15.40
2022-10-13T13:17:06.933Z,15.30
2022-10-13T13:19:34.317Z,15.30
2022-10-13T13:22:01.111Z,15.30
2022-10-13T13:24:39.467Z,15.30
2022-10-13T13:27:24.526Z,15.30
2022-10-13T13:29:51.175Z,15.30
2022-10-13T13:32:20.224Z,15.20
2022-10-13T13:34:47.110Z,15.20
2022-10-13T13:37:14.756Z,15.30
2022-10-13T13:39:43.170Z,15.30
2022-10-13T13:42:12.837Z,15.30
2022-10-13T13:44:39.793Z,15.40
2022-10-13T13:47:14.686Z,15.40
2022-10-13T13:49:41.709Z,15.40
2022-10-13T13:52:08.254Z,15.50
2022-10-13T13:54:35.003Z,15.50
2022-10-13T13:57:02.847Z,15.50
2022-10-13T13:59:29.717Z,15.60
2022-10-13T14:01:57.051Z,15.60
2022-10-13T14:04:25.319Z,15.50
2022-10-13T14:06:52.846Z,15.60
2022-10-13T14:09:19.467Z,15.60
2022-10-13T14:11:46.090Z,15.60
2022-10-13T14:14:12.955Z,15.60
2022-10-13T14:16:41.378Z,15.60
2022-10-13T14:19:08.524Z,15.60
2022-10-13T14:21:36.285Z,15.70
2022-10-13T14:24:10.216Z,15.70
2022-10-13T14:26:36.823Z,15.70
2022-10-13T14:29:04.156Z,15.70
2022-10-13T14:31:30.772Z,15.70
2022-10-13T14:33:57.376Z,15.80
2022-10-13T14:36:25.168Z,15.80
2022-10-13T14:38:51.941Z,15.80
2022-10-13T14:41:18.929Z,15.80
2022-10-13T14:43:45.502Z,15.80
2022-10-13T14:46:12.223Z,15.90
2022-10-13T14:48:38.965Z,15.90
2022-10-13T14:51:06.937Z,15.90
2022-10-13T14:53:37.557Z,15.90
2022-10-13T14:56:13.687Z,15.90
2022-10-13T14:58:41.694Z,16.00
2022-10-13T15:01:08.335Z,16.00
2022-10-13T15:03:34.977Z,15.90
2022-10-13T15:06:01.649Z,15.90
2022-10-13T15:08:29.958Z,15.70
2022-10-13T15:11:03.269Z,15.60
2022-10-13T15:13:30.033Z,15.60
2022-10-13T15:15:57.059Z,15.60
2022-10-13T15:18:27.068Z,15.60
2022-10-13T15:20:56.061Z,15.60
2022-10-13T15:23:22.670Z,15.50
2022-10-13T15:25:53.060Z,15.50
2022-10-13T15:28:20.719Z,15.50
2022-10-13T15:30:47.367Z,15.40
2022-10-13T15:33:17.126Z,15.40
2022-10-13T15:35:43.887Z,15.40
2022-10-13T15:38:10.598Z,15.50
2022-10-13T15:40:40.520Z,15.60
2022-10-13T15:43:07.479Z,15.60
2022-10-13T15:45:34.427Z,15.60
2022-10-13T15:48:01.351Z,15.70
2022-10-13T15:50:27.946Z,15.70
2022-10-13T15:52:54.539Z,15.70
2022-10-13T15:55:21.102Z,15.80
2022-10-13T15:57:47.833Z,15.70
2022-10-13T16:00:15.177Z,15.70
2022-10-13T16:02:42.539Z,15.70
2022-10-13T16:05:10.452Z,15.70
2022-10-13T16:07:38.267Z,15.60
2022-10-13T16:10:04.976Z,15.60
2022-10-13T16:12:31.798Z,15.60
2022-10-13T16:14:58.357Z,15.60
2022-10-13T16:17:25.119Z,15.60
2022-10-13T16:19:51.757Z,15.60
2022-10-13T16:22:18.692Z,15.60
2022-10-13T16:24:45.630Z,15.50
2022-10-13T16:27:12.279Z,15.50
2022-10-13T16:29:38.854Z,15.50
2022-10-13T16:32:05.415Z,15.40
2022-10-13T16:34:32.023Z,15.40
2022-10-13T16:36:58.647Z,15.50
2022-10-13T16:39:26.014Z,15.50
2022-10-13T16:41:52.560Z,15.40
2022-10-13T16:44:24.487Z,15.40
2022-10-13T16:46:53.699Z,15.40
2022-10-13T16:49:20.300Z,15.40
2022-10-13T16:51:46.868Z,15.40
2022-10-13T16:54:13.446Z,15.40
2022-10-13T16:56:41.819Z,15.40
2022-10-13T16:59:08.476Z,15.40
2022-10-13T17:01:36.279Z,15.30
2022-10-13T17:04:03.632Z,15.30
2022-10-13T17:06:30.190Z,15.30
2022-10-13T17:08:57.489Z,15.30
2022-10-13T17:11:25.556Z,15.20
2022-10-13T17:13:52.474Z,15.20
2022-10-13T17:16:19.476Z,15.20
2022-10-13T17:18:46.424Z,15.20
2022-10-13T17:21:14.376Z,15.20
2022-10-13T17:23:45.921Z,15.10
2022-10-13T17:26:15.605Z,15.20
2022-10-13T17:28:42.745Z,15.20
2022-10-13T17:31:11.852Z,15.20
2022-10-13T17:33:39.349Z,15.20
2022-10-13T17:36:08.160Z,15.20
2022-10-13T17:38:34.779Z,15.20
2022-10-13T17:41:02.501Z,15.10
2022-10-13T17:43:29.704Z,15.10
2022-10-13T17:46:31.061Z,15.00
2022-10-13T17:48:54.647Z,15.10
2022-10-13T17:51:21.386Z,15.00
2022-10-13T17:53:48.655Z,15.00
2022-10-13T17:56:16.618Z,15.10
2022-10-13T17:58:43.860Z,15.10
2022-10-13T18:01:13.970Z,15.20
2022-10-13T18:03:44.295Z,15.20
2022-10-13T18:06:11.580Z,15.20
2022-10-13T18:08:38.361Z,15.20
2022-10-13T18:11:08.380Z,15.10
2022-10-13T18:13:35.390Z,15.10
2022-10-13T18:16:05.801Z,15.00
2022-10-13T18:18:32.584Z,15.00
2022-10-13T18:21:03.149Z,15.00
2022-10-13T18:23:31.257Z,15.00
2022-10-13T18:26:01.714Z,15.00
2022-10-13T18:28:29.086Z,15.10
2022-10-13T18:31:01.349Z,15.00
2022-10-13T18:33:27.954Z,15.00
2022-10-13T18:35:54.533Z,15.00
2022-10-13T18:38:22.953Z,15.00
2022-10-13T18:40:49.651Z,15.00
2022-10-13T18:43:16.220Z,15.00
2022-10-13T18:45:42.783Z,14.90
2022-10-13T18:48:09.335Z,14.90
2022-10-13T18:50:36.300Z,14.90
2022-10-13T18:53:02.973Z,14.90
2022-10-13T18:55:29.595Z,14.80
2022-10-13T18:57:56.217Z,14.80
2022-10-13T19:00:23.428Z,14.80
2022-10-13T19:02:51.720Z,14.80
2022-10-13T19:05:18.297Z,14.80
2022-10-13T19:07:44.886Z,14.80
2022-10-13T19:10:11.495Z,14.80
2022-10-13T19:12:38.081Z,14.80
2022-10-13T19:15:05.015Z,14.80
2022-10-13T19:17:31.610Z,14.80
2022-10-13T19:19:58.205Z,14.80
2022-10-13T19:22:24.778Z,14.80
2022-10-13T19:24:51.341Z,14.70
2022-10-13T19:27:19.364Z,14.70
2022-10-13T19:29:46.730Z,14.70
2022-10-13T19:32:13.324Z,14.70
2022-10-13T19:34:39.924Z,14.60
2022-10-13T19:37:07.132Z,14.50
2022-10-13T19:39:34.279Z,14.50
2022-10-13T19:42:00.902Z,14.50
2022-10-13T19:44:27.486Z,14.50
2022-10-13T19:46:54.301Z,14.40
2022-10-13T19:49:22.160Z,14.40
2022-10-13T19:51:49.669Z,14.30
2022-10-13T19:54:17.354Z,14.30
2022-10-13T19:56:45.187Z,14.30
2022-10-13T19:59:11.763Z,14.20
2022-10-13T20:01:40.883Z,14.20
2022-10-13T20:04:12.321Z,14.10
2022-10-13T20:06:39.979Z,14.10
2022-10-13T20:09:06.612Z,14.10
2022-10-13T20:11:33.211Z,14.10
2022-10-13T20:13:59.861Z,14.10
2022-10-13T20:16:26.551Z,14.10
2022-10-13T20:18:58.660Z,14.00
2022-10-13T20:21:25.850Z,14.00
2022-10-13T20:23:52.852Z,14.00
2022-10-13T20:26:19.804Z,13.90
2022-10-13T20:28:47.425Z,13.80
2022-10-13T20:31:14.873Z,13.60
2022-10-13T20:33:41.892Z,13.60
2022-10-13T20:36:11.091Z,13.50
2022-10-13T20:38:37.814Z,13.50
2022-10-13T20:41:08.643Z,13.50
2022-10-13T20:43:35.704Z,13.40
2022-10-13T20:46:06.708Z,13.30
2022-10-13T20:48:57.917Z,13.30
2022-10-13T20:51:22.746Z,13.20
2022-10-13T20:53:49.630Z,13.10
2022-10-13T20:56:18.122Z,13.00
2022-10-13T20:58:44.993Z,12.90
2022-10-13T21:01:12.140Z,12.90
2022-10-13T21:03:39.215Z,12.80
2022-10-13T21:06:08.449Z,12.70
2022-10-13T21:08:35.269Z,12.60
2022-10-13T21:11:03.092Z,12.60
2022-10-13T21:13:29.795Z,12.60
2022-10-13T21:15:56.366Z,12.60
2022-10-13T21:18:25.163Z,12.50
2022-10-13T21:20:51.815Z,12.40
2022-10-13T21:23:18.394Z,12.50
2022-10-13T21:25:45.047Z,12.40
2022-10-13T21:28:11.678Z,12.40
2022-10-13T21:30:38.310Z,12.40
2022-10-13T21:33:04.888Z,12.30
2022-10-13T21:35:31.475Z,12.20
2022-10-13T21:37:58.053Z,12.10
2022-10-13T21:40:24.643Z,12.10
2022-10-13T21:42:51.252Z,12.10
2022-10-13T21:45:17.894Z,12.10
2022-10-13T21:47:44.469Z,12.10
2022-10-13T21:50:11.145Z,12.10
2022-10-13T21:52:38.243Z,12.00
2022-10-13T21:55:05.103Z,11.90
2022-10-13T21:57:31.744Z,11.90
2022-10-13T21:59:58.305Z,12.00
2022-10-13T22:02:24.911Z,12.10
2022-10-13T22:04:51.499Z,12.00
2022-10-13T22:07:18.267Z,12.00
2022-10-13T22:09:45.042Z,11.90
2022-10-13T22:12:11.716Z,11.80
2022-10-13T22:14:38.321Z,11.80
2022-10-13T22:17:06.663Z,11.80
2022-10-13T22:19:33.268Z,11.80
2022-10-13T22:21:59.896Z,12.00
2022-10-13T22:24:26.491Z,12.10
2022-10-13T22:26:53.179Z,12.00
2022-10-13T22:29:20.790Z,12.00
2022-10-13T22:31:47.427Z,12.00
2022-10-13T22:34:14.903Z,12.10
2022-10-13T22:36:44.734Z,12.10
2022-10-13T22:39:12.122Z,12.00
2022-10-13T22:41:38.729Z,12.00
2022-10-13T22:44:05.291Z,11.90
2022-10-13T22:46:33.661Z,11.90
2022-10-13T22:49:00.878Z,11.90
2022-10-13T22:51:29.607Z,11.90
2022-10-13T22:53:56.531Z,11.80
2022-10-13T22:56:24.309Z,11.80
2022-10-13T22:58:51.628Z,11.80
2022-10-13T23:01:18.623Z,11.80
2022-10-13T23:03:48.978Z,11.80
2022-10-13T23:06:16.784Z,11.80
2022-10-13T23:08:43.340Z,11.80
2022-10-13T23:11:10.123Z,11.80
2022-10-13T23:13:36.815Z,11.80
2022-10-13T23:16:04.170Z,11.80
2022-10-13T23:18:33.958Z,12.00
2022-10-13T23:21:04.058Z,12.10
2022-10-13T23:23:30.636Z,12.10
2022-10-13T23:26:01.633Z,12.20
2022-10-13T23:28:28.243Z,12.30
2022-10-13T23:30:58.340Z,12.30
2022-10-13T23:33:27.005Z,12.40
2022-10-13T23:35:54.598Z,12.40
2022-10-13T23:38:21.598Z,12.50
2022-10-13T23:40:48.571Z,12.60
2022-10-13T23:43:15.246Z,12.60
2022-10-13T23:45:42.247Z,12.60
2022-10-13T23:48:09.834Z,12.60
2022-10-13T23:50:36.460Z,12.60
2022-10-13T23:53:03.473Z,12.60
2022-10-13T23:55:30.100Z,12.60
2022-10-13T23:57:56.680Z,12.40
